Time;durP1;ratioP1;P1;durP2;ratioP2;P2;SDS_P1;SDS_P2;PMS_P1;PMS_P2;Temp;Humidity;BMP_temperature;BMP_pressure;BME280_temperature;BME280_humidity;BME280_pressure;Samples;Min_cycle;Max_cycle;Signal;HPM_P1;HPM_P2
2022/12/22 03:27:19;;;;;;;17.20;12.97;;;11.80;99.90;;;;;;5033403;28;20193;-91
2022/12/22 03:29:47;;;;;;;19.27;12.53;;;11.80;99.90;;;;;;5033711;28;20300;-94
2022/12/22 03:32:14;;;;;;;17.33;12.63;;;11.80;99.90;;;;;;5033919;28;20202;-93
2022/12/22 03:34:44;;;;;;;17.37;12.20;;;11.90;99.90;;;;;;5033566;28;20240;-84
2022/12/22 03:37:11;;;;;;;19.27;12.57;;;11.80;99.90;;;;;;5033887;28;20214;-94
2022/12/22 03:39:39;;;;;;;18.30;12.07;;;11.80;99.90;;;;;;5034043;28;20277;-85
2022/12/22 03:47:42;;;;;;;22.07;13.63;;;11.70;99.90;;;;;;5033901;28;20653;-95
2022/12/22 03:50:12;;;;;;;21.80;14.83;;;11.80;99.90;;;;;;5033856;28;20578;-85
2022/12/22 03:52:41;;;;;;;20.47;14.47;;;11.70;99.90;;;;;;5033696;28;20212;-95
2022/12/22 03:55:10;;;;;;;23.33;15.87;;;11.80;99.90;;;;;;5036104;28;20209;-85
2022/12/22 03:57:43;;;;;;;24.33;15.43;;;11.80;99.90;;;;;;5037806;28;20213;-95
2022/12/22 04:00:16;;;;;;;26.23;15.77;;;11.80;99.90;;;;;;5037876;28;20217;-94
2022/12/22 04:02:44;;;;;;;24.97;17.33;;;11.70;99.90;;;;;;5038138;28;20217;-89
2022/12/22 04:05:15;;;;;;;25.53;16.83;;;11.70;99.90;;;;;;5038072;28;20666;-88
2022/12/22 04:07:42;;;;;;;26.03;16.83;;;11.30;99.90;;;;;;5037738;28;20198;-84
2022/12/22 04:12:55;;;;;;;30.43;17.80;;;11.50;99.90;;;;;;5037503;28;20216;-85
2022/12/22 04:15:27;;;;;;;31.70;18.30;;;11.60;99.90;;;;;;5037053;28;20216;-96
2022/12/22 04:17:58;;;;;;;44.58;27.80;;;11.60;99.90;;;;;;5036429;28;20906;-87
2022/12/22 04:20:27;;;;;;;35.00;20.17;;;11.60;99.90;;;;;;5037643;28;20197;-95
2022/12/22 04:22:56;;;;;;;35.53;18.57;;;11.70;99.90;;;;;;5037534;28;20202;-85
2022/12/22 04:25:24;;;;;;;30.70;18.07;;;11.50;99.90;;;;;;5037758;28;20205;-83
2022/12/22 04:27:53;;;;;;;28.20;16.50;;;11.50;99.90;;;;;;5037215;28;20195;-93
2022/12/22 04:30:25;;;;;;;27.00;15.50;;;11.60;99.90;;;;;;5037625;28;20202;-84
2022/12/22 04:32:52;;;;;;;27.43;16.33;;;11.40;99.90;;;;;;5037427;28;20208;-87
2022/12/22 04:35:26;;;;;;;24.57;15.63;;;11.40;99.90;;;;;;5037579;28;20615;-83
2022/12/22 04:37:55;;;;;;;30.17;17.17;;;11.40;99.90;;;;;;5037331;28;20203;-84
2022/12/22 04:40:25;;;;;;;28.73;16.10;;;11.30;99.90;;;;;;5037026;28;20203;-86
2022/12/22 04:42:58;;;;;;;31.90;16.63;;;11.30;99.90;;;;;;5036768;28;20641;-84
2022/12/22 04:45:30;;;;;;;28.03;16.10;;;11.20;99.90;;;;;;5037217;28;20210;-85
2022/12/22 04:47:59;;;;;;;33.43;16.73;;;11.30;99.90;;;;;;5036509;28;20203;-86
2022/12/22 04:50:27;;;;;;;33.47;16.70;;;11.30;99.90;;;;;;5036726;28;20216;-90
2022/12/22 04:52:54;;;;;;;36.57;17.67;;;11.30;99.90;;;;;;5036845;28;20220;-84
2022/12/22 04:55:21;;;;;;;33.13;16.73;;;11.30;99.90;;;;;;5038151;28;20216;-85
2022/12/22 04:57:49;;;;;;;31.47;17.57;;;11.20;99.90;;;;;;5016978;28;20201;-85
2022/12/22 05:00:36;;;;;;;34.43;18.17;;;11.20;99.90;;;;;;5021497;28;20224;-84
2022/12/22 05:03:27;;;;;;;33.80;17.93;;;11.10;99.90;;;;;;5023883;28;20270;-83
2022/12/22 05:09:18;;;;;;;34.40;17.33;;;10.80;99.90;;;;;;5034160;28;20215;-81
2022/12/22 05:11:56;;;;;;;38.67;19.47;;;10.90;99.90;;;;;;5037955;28;20201;-82
2022/12/22 05:14:49;;;;;;;37.43;17.97;;;10.90;99.90;;;;;;5039558;28;20236;-80
2022/12/22 05:17:23;;;;;;;32.23;17.07;;;10.80;99.90;;;;;;5034748;28;20279;-81
2022/12/22 05:19:53;;;;;;;37.47;19.47;;;10.90;99.90;;;;;;5033151;28;20296;-80
2022/12/22 05:22:36;;;;;;;37.20;18.97;;;10.80;99.90;;;;;;5032646;28;20213;-80
2022/12/22 05:25:37;;;;;;;38.47;20.00;;;10.80;99.90;;;;;;5033522;28;20612;-80
2022/12/22 05:28:08;;;;;;;40.17;20.73;;;10.80;99.90;;;;;;5033314;28;20668;-80
2022/12/22 05:30:47;;;;;;;40.07;21.70;;;10.80;99.90;;;;;;5030963;28;20204;-79
2022/12/22 05:33:26;;;;;;;45.87;23.70;;;10.70;99.90;;;;;;5030671;28;20211;-80
2022/12/22 05:36:11;;;;;;;44.57;21.73;;;10.70;99.90;;;;;;5031096;28;20260;-80
2022/12/22 05:38:50;;;;;;;41.93;23.27;;;10.70;99.90;;;;;;5031646;28;20193;-80
2022/12/22 05:41:19;;;;;;;41.63;23.00;;;10.70;99.90;;;;;;5034176;28;20216;-80
2022/12/22 05:43:51;;;;;;;46.07;23.87;;;10.60;99.90;;;;;;5022046;28;20712;-83
2022/12/22 05:46:26;;;;;;;52.97;31.60;;;10.70;99.90;;;;;;5016591;28;20444;-90
2022/12/22 05:52:43;;;;;;;45.63;24.47;;;10.90;99.90;;;;;;5035194;28;20232;-82
2022/12/22 05:55:12;;;;;;;38.80;22.17;;;10.80;99.90;;;;;;5016858;28;20298;-89
2022/12/22 05:58:01;;;;;;;42.93;22.80;;;10.80;99.90;;;;;;5020119;28;20667;-84
2022/12/22 06:00:29;;;;;;;42.07;21.97;;;10.80;99.90;;;;;;5017346;28;20216;-87
2022/12/22 06:03:03;;;;;;;37.57;20.13;;;10.80;99.90;;;;;;5046709;28;20207;-91
2022/12/22 06:06:06;;;;;;;38.03;19.20;;;10.80;99.90;;;;;;5047323;28;20256;-80
2022/12/22 06:08:51;;;;;;;37.43;18.47;;;10.80;99.90;;;;;;5057679;28;20253;-81
2022/12/22 06:11:44;;;;;;;34.43;18.20;;;10.80;99.90;;;;;;5055738;28;20191;-81
2022/12/22 06:14:32;;;;;;;31.97;17.00;;;10.70;99.90;;;;;;5056393;28;20231;-80
2022/12/22 06:17:57;;;;;;;51.63;27.85;;;10.70;99.90;;;;;;5057314;28;20471;-81
2022/12/22 06:24:09;;;;;;;51.47;24.53;;;10.50;99.90;;;;;;5057682;28;20179;-81
2022/12/22 06:27:52;;;;;;;52.07;24.30;;;10.40;99.90;;;;;;5058776;28;20233;-84
2022/12/22 06:31:22;;;;;;;55.40;25.53;;;10.30;99.90;;;;;;5059136;28;20175;-83
2022/12/22 06:57:13;;;;;;;67.33;29.93;;;10.20;99.90;;;;;;5061373;28;20207;-82
2022/12/22 06:59:48;;;;;;;59.53;27.93;;;10.30;99.90;;;;;;5076754;28;20198;-81
2022/12/22 07:02:24;;;;;;;48.27;21.97;;;10.10;99.90;;;;;;5076101;28;20193;-81
2022/12/22 07:18:23;;;;;;;51.33;23.60;;;10.00;99.90;;;;;;5052462;28;20589;-86
2022/12/22 07:34:31;;;;;;;57.40;25.27;;;9.90;99.90;;;;;;5027142;28;20270;-84
2022/12/22 07:43:58;;;;;;;59.47;25.37;;;9.80;99.90;;;;;;5069369;28;20210;-89
2022/12/22 08:28:23;;;;;;;70.37;28.53;;;9.60;99.90;;;;;;4851322;29;20273;-87
2022/12/22 08:44:50;;;;;;;50.87;22.83;;;9.70;99.90;;;;;;4778923;29;20298;-80
2022/12/22 08:47:17;;;;;;;50.13;23.30;;;9.60;99.90;;;;;;4872078;29;20269;-80
2022/12/22 08:49:44;;;;;;;48.63;23.17;;;9.70;99.90;;;;;;4887484;29;20212;-77
2022/12/22 08:52:11;;;;;;;48.17;22.43;;;9.70;99.90;;;;;;4904939;29;20214;-80
2022/12/22 08:54:39;;;;;;;41.70;20.97;;;9.70;99.90;;;;;;4909290;29;20338;-82
2022/12/22 08:57:06;;;;;;;32.53;17.60;;;9.70;99.90;;;;;;4909623;29;20208;-81
2022/12/22 08:59:49;;;;;;;33.17;18.70;;;9.70;99.90;;;;;;4914987;29;20228;-82
2022/12/22 09:02:16;;;;;;;31.37;18.70;;;9.60;99.90;;;;;;4983010;28;20217;-81
2022/12/22 09:04:43;;;;;;;35.07;19.47;;;9.60;99.90;;;;;;4974328;28;20182;-81
2022/12/22 09:07:28;;;;;;;32.10;18.73;;;9.70;99.90;;;;;;4988800;28;20201;-80
2022/12/22 09:09:56;;;;;;;25.13;17.30;;;9.70;99.90;;;;;;4985030;28;20205;-79
2022/12/22 09:12:23;;;;;;;25.27;18.07;;;9.70;99.90;;;;;;4995864;28;20203;-81
2022/12/22 09:14:51;;;;;;;32.53;18.03;;;9.90;99.90;;;;;;5023731;28;20212;-81
2022/12/22 09:17:19;;;;;;;26.27;19.10;;;9.80;99.90;;;;;;5021957;28;20581;-81
2022/12/22 09:19:47;;;;;;;31.27;18.77;;;9.80;99.90;;;;;;5061844;28;20207;-77
2022/12/22 09:22:15;;;;;;;25.27;18.00;;;9.80;99.90;;;;;;5060535;28;20211;-79
2022/12/22 09:24:45;;;;;;;28.83;18.93;;;9.70;99.90;;;;;;5062174;28;20198;-80
2022/12/22 09:27:12;;;;;;;28.07;19.43;;;9.70;99.90;;;;;;5073502;28;20238;-80
2022/12/22 09:29:41;;;;;;;36.50;22.80;;;9.70;99.90;;;;;;5064421;28;20202;-80
2022/12/22 09:32:33;;;;;;;39.23;21.90;;;9.70;99.90;;;;;;5064183;28;20202;-80
2022/12/22 09:35:01;;;;;;;39.60;24.03;;;9.60;99.90;;;;;;5058549;28;20232;-80
2022/12/22 09:37:28;;;;;;;42.43;26.43;;;9.50;99.90;;;;;;5061771;28;20307;-81
2022/12/22 09:40:00;;;;;;;44.33;27.23;;;9.60;99.90;;;;;;5058410;28;20633;-80
2022/12/22 09:42:29;;;;;;;45.50;28.43;;;9.50;99.90;;;;;;5051664;28;20273;-79
2022/12/22 09:45:10;;;;;;;44.85;35.35;;;9.70;99.90;;;;;;5061589;28;20508;-79
2022/12/22 09:47:40;;;;;;;46.77;30.63;;;9.60;99.90;;;;;;5062612;28;20203;-80
2022/12/22 09:50:15;;;;;;;37.27;25.97;;;9.60;99.90;;;;;;5046486;28;20203;-80
2022/12/22 09:52:48;;;;;;;38.20;26.67;;;9.50;99.90;;;;;;5052653;28;20198;-80
2022/12/22 09:55:26;;;;;;;35.37;25.10;;;9.50;99.90;;;;;;5063603;28;20249;-79
2022/12/22 09:57:54;;;;;;;32.37;22.23;;;9.50;99.90;;;;;;5059433;28;20206;-80
2022/12/22 10:00:26;;;;;;;28.97;21.20;;;9.40;99.90;;;;;;5060173;28;20214;-79
2022/12/22 10:03:02;;;;;;;31.43;23.50;;;9.40;99.90;;;;;;5056806;28;20259;-79
2022/12/22 10:05:38;;;;;;;30.93;20.13;;;9.30;99.90;;;;;;5058822;28;20206;-79
2022/12/22 10:08:11;;;;;;;31.33;21.03;;;9.40;99.90;;;;;;5063775;28;20206;-80
2022/12/22 10:10:40;;;;;;;28.57;19.93;;;9.30;99.90;;;;;;5061643;28;20186;-79
2022/12/22 10:13:22;;;;;;;24.80;18.07;;;9.40;99.90;;;;;;5067165;28;20207;-79
2022/12/22 10:15:50;;;;;;;21.97;16.33;;;9.40;99.90;;;;;;5065396;28;20228;-79
2022/12/22 10:18:22;;;;;;;23.57;14.77;;;9.30;99.90;;;;;;5050813;28;20227;-79
2022/12/22 10:21:11;;;;;;;20.40;16.43;;;9.40;99.90;;;;;;5040174;28;20199;-78
2022/12/22 10:23:40;;;;;;;22.97;16.63;;;9.40;99.90;;;;;;5046743;28;20190;-79
2022/12/22 10:26:10;;;;;;;25.27;17.17;;;9.50;99.90;;;;;;5051615;28;20220;-77
2022/12/22 10:28:43;;;;;;;23.23;14.13;;;9.60;99.90;;;;;;5060787;28;20224;-78
2022/12/22 10:31:14;;;;;;;17.30;12.57;;;9.70;99.90;;;;;;5059005;28;20198;-79
2022/12/22 10:33:43;;;;;;;17.77;10.70;;;9.80;99.90;;;;;;5054735;28;20209;-80
2022/12/22 10:36:20;;;;;;;12.63;11.37;;;9.90;99.90;;;;;;5047534;28;20230;-82
2022/12/22 10:39:00;;;;;;;13.13;10.83;;;9.80;99.90;;;;;;5050261;28;20195;-78
2022/12/22 10:41:29;;;;;;;15.63;11.77;;;9.80;99.90;;;;;;5048303;28;20195;-78
2022/12/22 10:43:58;;;;;;;12.20;9.80;;;9.80;99.90;;;;;;5039899;28;20261;-80
2022/12/22 10:46:33;;;;;;;10.47;9.33;;;9.70;99.90;;;;;;5054850;28;20202;-79
2022/12/22 10:49:18;;;;;;;9.93;8.77;;;9.80;99.90;;;;;;5058174;28;20198;-78
2022/12/22 10:51:48;;;;;;;11.87;8.83;;;9.80;99.90;;;;;;5050764;28;20199;-78
2022/12/22 10:54:29;;;;;;;12.10;9.03;;;9.90;99.90;;;;;;5054806;28;20289;-77
2022/12/22 10:57:06;;;;;;;12.30;8.63;;;10.00;99.90;;;;;;5053812;28;20202;-80
2022/12/22 10:59:34;;;;;;;11.67;7.93;;;10.10;99.90;;;;;;5052100;28;20199;-79
2022/12/22 11:02:27;;;;;;;10.17;7.57;;;10.10;99.90;;;;;;5046103;28;20199;-78
2022/12/22 11:05:04;;;;;;;11.70;7.43;;;10.20;99.90;;;;;;5044117;28;20575;-79
2022/12/22 11:07:34;;;;;;;10.67;6.57;;;10.30;99.90;;;;;;5056199;28;20234;-79
2022/12/22 11:10:01;;;;;;;7.37;6.67;;;10.20;99.90;;;;;;5056962;28;20203;-79
2022/12/22 11:12:37;;;;;;;7.20;6.10;;;10.20;99.90;;;;;;5058390;28;20210;-90
2022/12/22 11:15:15;;;;;;;12.07;6.83;;;10.20;99.90;;;;;;5064954;28;20222;-94
2022/12/22 11:18:13;;;;;;;10.27;6.80;;;10.40;99.90;;;;;;5064113;28;20681;-78
2022/12/22 11:21:01;;;;;;;10.13;7.43;;;10.30;99.90;;;;;;5072552;28;20249;-78
2022/12/22 11:23:35;;;;;;;9.53;8.13;;;10.20;99.90;;;;;;5069584;28;20207;-79
2022/12/22 11:26:10;;;;;;;12.17;8.83;;;10.30;99.90;;;;;;5055437;28;20202;-79
2022/12/22 11:28:53;;;;;;;10.93;8.83;;;10.40;99.90;;;;;;5053836;28;20190;-79
2022/12/22 11:31:44;;;;;;;13.87;9.90;;;10.40;99.90;;;;;;5037511;28;20214;-81
2022/12/22 11:34:25;;;;;;;9.93;8.33;;;10.40;99.90;;;;;;5054552;28;20208;-78
2022/12/22 11:37:17;;;;;;;9.50;8.07;;;10.30;99.90;;;;;;5056200;28;20269;-78
2022/12/22 11:39:59;;;;;;;7.70;7.00;;;10.40;99.90;;;;;;5060378;28;20191;-78
2022/12/22 11:43:09;;;;;;;11.43;6.70;;;10.50;99.90;;;;;;5048089;28;20223;-79
2022/12/22 11:46:07;;;;;;;11.40;7.90;;;10.40;99.90;;;;;;5066998;28;20433;-83
2022/12/22 11:49:19;;;;;;;7.67;5.97;;;10.50;99.90;;;;;;5061720;28;20214;-78
2022/12/22 11:52:07;;;;;;;5.30;4.80;;;10.40;99.90;;;;;;5069525;28;20214;-78
2022/12/22 11:55:39;;;;;;;9.27;5.33;;;10.40;99.90;;;;;;5061534;28;20282;-78
2022/12/22 11:58:34;;;;;;;8.03;4.37;;;10.40;99.90;;;;;;5052234;28;20545;-76
2022/12/22 12:01:17;;;;;;;7.23;4.77;;;10.50;99.90;;;;;;5053331;28;20206;-76
2022/12/22 12:04:23;;;;;;;7.57;4.40;;;10.50;99.90;;;;;;5053521;28;20203;-77
2022/12/22 12:07:13;;;;;;;7.60;3.83;;;10.70;99.90;;;;;;5036944;28;20561;-77
2022/12/22 12:09:47;;;;;;;4.27;3.87;;;10.70;99.90;;;;;;5049505;28;20210;-77
2022/12/22 12:12:23;;;;;;;7.73;4.30;;;10.70;99.90;;;;;;5044527;28;20204;-77
2022/12/22 12:14:59;;;;;;;6.73;4.07;;;10.90;99.90;;;;;;5053157;28;20206;-77
2022/12/22 12:17:47;;;;;;;5.30;4.23;;;10.90;99.90;;;;;;5056586;28;20200;-77
2022/12/22 12:20:29;;;;;;;4.77;3.30;;;11.00;99.90;;;;;;5056383;28;20200;-77
2022/12/22 12:23:09;;;;;;;3.87;3.47;;;11.00;99.90;;;;;;5058523;28;20218;-77
2022/12/22 12:25:41;;;;;;;5.60;3.30;;;10.90;99.90;;;;;;5063446;28;20562;-76
2022/12/22 12:28:23;;;;;;;4.13;2.90;;;10.90;99.90;;;;;;5065614;28;20204;-77
2022/12/22 12:30:54;;;;;;;4.80;2.90;;;10.90;99.90;;;;;;5066158;28;20213;-78
2022/12/22 12:33:35;;;;;;;4.00;2.77;;;10.80;99.90;;;;;;5060938;28;20226;-79
2022/12/22 12:36:08;;;;;;;4.13;3.30;;;10.90;99.90;;;;;;5047956;28;20213;-81
2022/12/22 12:38:44;;;;;;;3.17;2.90;;;10.90;99.90;;;;;;5054970;28;20209;-80
2022/12/22 12:41:20;;;;;;;4.40;3.07;;;10.90;99.90;;;;;;5060806;28;20214;-78
2022/12/22 12:43:52;;;;;;;4.23;3.07;;;10.70;99.90;;;;;;5057224;28;20590;-78
2022/12/22 12:47:05;;;;;;;4.17;3.03;;;10.60;99.90;;;;;;5057259;28;20196;-78
2022/12/22 12:49:57;;;;;;;5.03;3.40;;;10.50;99.90;;;;;;4977238;28;20189;-78
2022/12/22 12:53:13;;;;;;;3.57;3.27;;;10.40;99.90;;;;;;5058967;28;20214;-80
2022/12/22 12:55:57;;;;;;;6.23;3.80;;;10.40;99.90;;;;;;5059358;28;20296;-78
2022/12/22 12:58:48;;;;;;;4.47;3.93;;;10.40;99.90;;;;;;5056664;28;20293;-78
2022/12/22 13:01:54;;;;;;;6.13;4.37;;;10.40;99.90;;;;;;5054379;28;20211;-79
2022/12/22 13:05:12;;;;;;;6.90;4.43;;;10.40;99.90;;;;;;5057395;28;20300;-78
2022/12/22 13:08:10;;;;;;;6.03;4.83;;;10.40;99.90;;;;;;5055061;28;20292;-78
2022/12/22 13:10:40;;;;;;;5.40;4.83;;;10.50;99.90;;;;;;5051288;28;20209;-79
2022/12/22 13:13:11;;;;;;;5.17;4.67;;;10.50;99.90;;;;;;5054791;28;20195;-78
2022/12/22 13:15:39;;;;;;;5.10;4.70;;;10.40;99.90;;;;;;5057691;28;20227;-78
2022/12/22 13:18:41;;;;;;;6.00;4.90;;;10.40;99.90;;;;;;5055635;28;20195;-79
2022/12/22 13:21:14;;;;;;;5.13;4.53;;;10.40;99.90;;;;;;5057210;28;20201;-79
2022/12/22 13:23:45;;;;;;;6.23;4.10;;;10.40;99.90;;;;;;5056233;28;20664;-80
2022/12/22 13:26:14;;;;;;;5.40;4.47;;;10.40;99.90;;;;;;5055858;28;20192;-78
2022/12/22 13:28:44;;;;;;;6.33;4.90;;;10.40;99.90;;;;;;5056113;28;20203;-80
2022/12/22 13:31:18;;;;;;;7.23;5.13;;;10.40;99.90;;;;;;5054613;28;20207;-78
2022/12/22 13:33:45;;;;;;;6.30;5.23;;;10.40;99.90;;;;;;5056500;28;20210;-78
2022/12/22 13:36:18;;;;;;;8.67;6.17;;;10.50;99.90;;;;;;5056274;28;20232;-78
2022/12/22 13:38:47;;;;;;;10.83;5.70;;;10.50;99.90;;;;;;5055728;28;20195;-80
2022/12/22 13:41:17;;;;;;;6.57;5.73;;;10.50;99.90;;;;;;5056640;28;20196;-78
2022/12/22 13:43:49;;;;;;;8.03;5.70;;;10.60;99.90;;;;;;5056963;28;20219;-77
2022/12/22 13:46:15;;;;;;;8.67;5.70;;;10.50;99.90;;;;;;5055830;28;20196;-79
2022/12/22 13:48:45;;;;;;;13.57;6.17;;;10.60;99.90;;;;;;5056151;28;20191;-78
2022/12/22 13:51:18;;;;;;;10.80;5.60;;;10.70;99.90;;;;;;5056253;28;20667;-78
2022/12/22 13:53:49;;;;;;;10.47;6.03;;;10.70;99.90;;;;;;5056764;28;20666;-77
2022/12/22 13:56:20;;;;;;;8.10;5.67;;;10.80;99.90;;;;;;5057941;28;20230;-78
2022/12/22 13:58:50;;;;;;;7.87;5.80;;;10.70;99.90;;;;;;5058381;28;20407;-78
2022/12/22 14:01:19;;;;;;;10.73;6.23;;;10.70;99.90;;;;;;5059416;28;20666;-78
2022/12/22 14:03:48;;;;;;;9.63;6.37;;;10.70;99.90;;;;;;5058035;28;20207;-82
2022/12/22 14:06:26;;;;;;;13.90;6.53;;;10.80;99.90;;;;;;5057120;28;20282;-78
2022/12/22 14:09:09;;;;;;;16.33;7.17;;;10.80;99.90;;;;;;5055831;28;20214;-78
2022/12/22 14:11:37;;;;;;;12.30;5.97;;;10.80;99.90;;;;;;5056216;28;20204;-78
2022/12/22 14:14:07;;;;;;;13.07;6.97;;;10.90;99.90;;;;;;5055586;28;20218;-78
2022/12/22 14:16:35;;;;;;;12.30;6.27;;;10.90;99.90;;;;;;5056730;28;20226;-77
2022/12/22 14:19:03;;;;;;;16.80;6.93;;;11.00;99.90;;;;;;5055632;28;20225;-76
2022/12/22 14:21:31;;;;;;;12.40;6.60;;;11.00;99.90;;;;;;5050063;28;20210;-78
2022/12/22 14:23:59;;;;;;;16.33;7.27;;;11.00;99.90;;;;;;5054800;28;20282;-78
2022/12/22 14:26:29;;;;;;;18.20;6.53;;;11.00;99.90;;;;;;5052372;28;20196;-78
2022/12/22 14:28:57;;;;;;;15.20;6.23;;;11.00;99.90;;;;;;5055408;28;20201;-77
2022/12/22 14:31:24;;;;;;;17.60;7.37;;;11.00;99.90;;;;;;5054310;28;20595;-78
2022/12/22 14:33:53;;;;;;;16.10;6.93;;;11.00;99.90;;;;;;5058940;28;20206;-77
2022/12/22 14:36:25;;;;;;;18.00;6.67;;;11.00;99.90;;;;;;5062100;28;20218;-77
2022/12/22 14:38:54;;;;;;;17.17;7.13;;;11.10;99.90;;;;;;5057687;28;20201;-79
2022/12/22 14:41:45;;;;;;;15.10;6.87;;;11.10;99.90;;;;;;5059845;28;20208;-79
2022/12/22 14:44:18;;;;;;;15.30;6.70;;;11.10;99.90;;;;;;5059932;28;20222;-80
2022/12/22 14:46:48;;;;;;;22.07;7.23;;;11.00;99.90;;;;;;5060121;28;20203;-78
2022/12/22 14:49:19;;;;;;;21.60;7.57;;;11.00;99.90;;;;;;5056799;28;20192;-77
2022/12/22 14:51:54;;;;;;;21.13;6.57;;;11.00;99.90;;;;;;5054759;28;20200;-78
2022/12/22 14:54:26;;;;;;;21.93;6.83;;;11.10;99.90;;;;;;5053004;28;20194;-80
2022/12/22 14:57:00;;;;;;;18.40;6.17;;;11.20;99.90;;;;;;5056305;28;20748;-80
2022/12/22 14:59:28;;;;;;;25.93;6.33;;;11.20;99.90;;;;;;5056621;28;20610;-81
2022/12/22 15:02:02;;;;;;;29.90;7.40;;;11.30;99.90;;;;;;5058672;28;20212;-80
2022/12/22 15:04:31;;;;;;;24.53;7.17;;;11.20;99.90;;;;;;5059403;28;20240;-85
2022/12/22 15:07:06;;;;;;;27.67;7.23;;;11.20;99.90;;;;;;5054977;28;20288;-77
2022/12/22 15:09:33;;;;;;;35.73;7.07;;;11.30;99.90;;;;;;5053669;28;20192;-79
2022/12/22 15:12:07;;;;;;;24.67;6.50;;;11.30;99.90;;;;;;5053438;28;20205;-86
2022/12/22 15:14:36;;;;;;;31.57;7.23;;;11.30;99.90;;;;;;5054288;28;20238;-78
2022/12/22 15:17:03;;;;;;;29.17;7.40;;;11.30;99.90;;;;;;5053071;28;20234;-79
2022/12/22 15:19:31;;;;;;;35.17;8.30;;;11.20;99.90;;;;;;5052651;28;20214;-78
2022/12/22 15:21:59;;;;;;;29.83;6.70;;;11.30;99.90;;;;;;5052767;28;20215;-80
2022/12/22 15:24:28;;;;;;;34.53;7.67;;;11.20;99.90;;;;;;5052888;28;20203;-83
2022/12/22 15:26:54;;;;;;;38.07;7.93;;;11.30;99.90;;;;;;5052637;28;20232;-91
2022/12/22 15:29:24;;;;;;;32.40;7.23;;;11.40;99.90;;;;;;5053389;28;20258;-82
2022/12/22 15:31:51;;;;;;;37.83;7.47;;;11.40;99.90;;;;;;5052783;28;20203;-80
2022/12/22 15:34:23;;;;;;;39.53;7.90;;;11.50;99.90;;;;;;5053105;28;20209;-80
2022/12/22 15:36:50;;;;;;;35.57;7.47;;;11.40;99.90;;;;;;5052619;28;20231;-79
2022/12/22 15:39:21;;;;;;;45.07;7.97;;;11.50;99.90;;;;;;5053330;28;20291;-79
2022/12/22 15:41:56;;;;;;;43.93;7.93;;;11.40;99.90;;;;;;5054440;28;20227;-79
2022/12/22 15:44:24;;;;;;;47.77;9.63;;;11.40;99.90;;;;;;5043865;28;20207;-79
2022/12/22 15:46:55;;;;;;;46.97;11.10;;;11.30;99.90;;;;;;5056666;28;20208;-79
2022/12/22 15:49:24;;;;;;;55.90;10.03;;;11.30;99.90;;;;;;5056028;28;20211;-78
2022/12/22 15:51:54;;;;;;;46.60;9.70;;;11.30;99.90;;;;;;5055256;28;20220;-80
2022/12/22 15:54:22;;;;;;;51.70;9.37;;;11.30;99.90;;;;;;5054323;28;20215;-79
2022/12/22 15:56:50;;;;;;;52.20;9.13;;;11.30;99.90;;;;;;5053604;28;20699;-78
2022/12/22 15:59:20;;;;;;;53.23;9.50;;;11.40;99.90;;;;;;5054808;28;20636;-78
2022/12/22 16:01:50;;;;;;;50.83;9.40;;;11.40;99.90;;;;;;5056650;28;20223;-78
2022/12/22 16:04:17;;;;;;;54.90;9.57;;;11.40;99.90;;;;;;5057376;28;20204;-78
2022/12/22 16:06:44;;;;;;;49.77;9.83;;;11.50;99.90;;;;;;5058659;28;20204;-78
2022/12/22 16:09:20;;;;;;;50.83;10.33;;;11.40;99.90;;;;;;5059995;28;20648;-78
2022/12/22 16:11:54;;;;;;;51.47;10.13;;;11.30;99.90;;;;;;5061037;28;20218;-87
2022/12/22 16:14:27;;;;;;;72.85;13.32;;;11.30;99.90;;;;;;5053386;28;20440;-83
2022/12/22 16:16:58;;;;;;;63.17;10.97;;;11.50;99.90;;;;;;5055534;28;20296;-80
2022/12/22 16:22:31;;;;;;;50.30;9.63;;;11.40;99.90;;;;;;5112129;28;20217;-88
2022/12/22 16:25:32;;;;;;;57.30;9.70;;;11.40;99.90;;;;;;5112753;28;20211;-87
2022/12/22 16:28:37;;;;;;;57.43;10.97;;;11.50;99.90;;;;;;5089133;28;20233;-87
2022/12/22 16:35:08;;;;;;;57.10;10.33;;;11.40;99.90;;;;;;5074144;28;20187;-88
2022/12/22 16:44:13;;;;;;;54.83;9.53;;;11.30;99.90;;;;;;5074386;28;20215;-88
2022/12/22 16:50:09;;;;;;;64.03;10.87;;;11.30;99.90;;;;;;5100101;22;20219;-91
2022/12/22 16:52:45;;;;;;;52.57;10.07;;;11.30;99.90;;;;;;5108270;28;20234;-88
2022/12/22 17:01:32;;;;;;;51.33;8.90;;;11.40;99.90;;;;;;5074563;28;20514;-87
2022/12/22 17:07:16;;;;;;;54.47;10.27;;;11.40;99.90;;;;;;5072643;28;20204;-88
2022/12/22 17:09:56;;;;;;;50.97;9.00;;;11.30;99.90;;;;;;5058397;28;20227;-87
2022/12/22 17:12:31;;;;;;;58.87;10.33;;;11.30;99.90;;;;;;5045797;28;20209;-89
2022/12/22 17:15:06;;;;;;;53.53;10.03;;;11.30;99.90;;;;;;5048881;28;20236;-88
2022/12/22 17:18:20;;;;;;;50.33;9.10;;;11.40;99.90;;;;;;5051444;28;20232;-89
2022/12/22 17:20:55;;;;;;;55.50;10.30;;;11.40;99.90;;;;;;5039558;28;20213;-89
2022/12/22 17:23:46;;;;;;;51.97;9.70;;;11.40;99.90;;;;;;5053428;28;20291;-90
2022/12/22 17:26:34;;;;;;;55.90;9.77;;;11.40;99.90;;;;;;5051582;28;20266;-89
2022/12/22 17:29:02;;;;;;;45.00;9.73;;;11.40;99.90;;;;;;5045350;28;20291;-89
2022/12/22 17:31:31;;;;;;;46.80;8.93;;;11.50;99.90;;;;;;5055726;28;20208;-91
2022/12/22 17:34:39;;;;;;;55.80;9.53;;;11.50;99.90;;;;;;5070186;28;20228;-90
2022/12/22 17:40:30;;;;;;;38.87;8.50;;;11.60;99.90;;;;;;5100920;22;20247;-87
2022/12/22 17:43:26;;;;;;;38.87;7.90;;;11.60;99.90;;;;;;5092983;28;20202;-88
2022/12/22 17:46:24;;;;;;;44.43;9.70;;;11.50;99.90;;;;;;5094056;28;20223;-86
2022/12/22 17:49:08;;;;;;;40.07;8.67;;;11.60;99.90;;;;;;5078428;28;20227;-86
2022/12/22 17:51:39;;;;;;;39.00;8.00;;;11.60;99.90;;;;;;5066582;28;20218;-85
2022/12/22 17:54:27;;;;;;;32.93;8.07;;;11.50;99.90;;;;;;5063675;28;20240;-86
2022/12/22 17:57:01;;;;;;;36.23;8.23;;;11.50;99.90;;;;;;5062828;28;20287;-86
2022/12/22 17:59:32;;;;;;;34.70;7.27;;;11.50;99.90;;;;;;5064275;28;20318;-85
2022/12/22 18:02:42;;;;;;;39.67;7.80;;;11.50;99.90;;;;;;5061388;28;20217;-83
2022/12/22 18:12:48;;;;;;;30.83;8.80;;;11.30;99.90;;;;;;5078363;28;20223;-84
2022/12/22 18:15:19;;;;;;;33.17;9.03;;;11.40;99.90;;;;;;5065917;28;20213;-84
2022/12/22 18:17:56;;;;;;;34.27;8.23;;;11.40;99.90;;;;;;5075659;28;20228;-86
2022/12/22 18:21:05;;;;;;;35.13;8.67;;;11.50;99.90;;;;;;5064172;28;20259;-87
2022/12/22 18:24:00;;;;;;;33.57;8.33;;;11.40;99.90;;;;;;5070845;28;20211;-87
2022/12/22 18:26:41;;;;;;;37.27;9.80;;;11.40;99.90;;;;;;5058262;28;20204;-86
2022/12/22 18:29:13;;;;;;;33.03;8.13;;;11.50;99.90;;;;;;5057400;28;20332;-85
2022/12/22 18:31:44;;;;;;;30.03;7.03;;;11.30;99.90;;;;;;5063561;28;20196;-86
2022/12/22 18:34:20;;;;;;;28.53;8.40;;;11.40;99.90;;;;;;5055013;28;20212;-86
2022/12/22 18:43:00;;;;;;;27.87;6.97;;;11.30;99.90;;;;;;5098126;28;20204;-85
2022/12/22 18:45:48;;;;;;;32.07;7.13;;;11.40;99.90;;;;;;5098017;28;20188;-83
2022/12/22 18:48:35;;;;;;;27.87;7.10;;;11.40;99.90;;;;;;5111520;22;20231;-83
2022/12/22 18:51:36;;;;;;;25.03;7.33;;;11.50;99.90;;;;;;5096996;28;20263;-87
2022/12/22 19:02:06;;;;;;;25.63;6.50;;;11.50;99.90;;;;;;5090551;28;20204;-84
2022/12/22 19:05:22;;;;;;;29.80;6.93;;;11.40;99.90;;;;;;5078136;28;20172;-84
2022/12/22 19:07:51;;;;;;;29.83;8.23;;;11.40;99.90;;;;;;5101520;22;20189;-84
2022/12/22 19:10:33;;;;;;;37.75;9.45;;;11.40;99.90;;;;;;5086978;28;20428;-83
2022/12/22 19:13:31;;;;;;;30.50;8.07;;;11.50;99.90;;;;;;5094399;28;20257;-85
2022/12/22 19:16:01;;;;;;;26.77;7.43;;;11.50;99.90;;;;;;5078038;28;20217;-94
2022/12/22 19:18:32;;;;;;;30.93;6.50;;;11.70;99.90;;;;;;5077185;28;20241;-82
2022/12/22 19:21:08;;;;;;;26.77;6.07;;;11.50;99.90;;;;;;5083379;28;20210;-93
2022/12/22 19:23:38;;;;;;;25.93;6.00;;;11.60;99.90;;;;;;5065603;28;20642;-91
2022/12/22 19:26:07;;;;;;;23.30;5.70;;;11.60;99.90;;;;;;5074648;28;20213;-83
2022/12/22 19:28:43;;;;;;;26.50;5.80;;;11.60;99.90;;;;;;5072967;28;20236;-93
2022/12/22 19:31:20;;;;;;;23.07;5.67;;;11.60;99.90;;;;;;5070188;28;20256;-86
2022/12/22 19:33:56;;;;;;;19.67;6.23;;;11.40;99.90;;;;;;5088391;28;20280;-92
2022/12/22 19:36:28;;;;;;;28.70;7.03;;;11.40;99.90;;;;;;5065702;28;20642;-89
2022/12/22 19:39:03;;;;;;;28.90;7.90;;;11.50;99.90;;;;;;5070157;28;20252;-84
2022/12/22 19:41:53;;;;;;;20.47;6.43;;;11.40;99.90;;;;;;5070168;28;20211;-91
2022/12/22 19:44:57;;;;;;;24.93;6.97;;;11.40;99.90;;;;;;5072850;28;20219;-86
2022/12/22 19:48:32;;;;;;;31.57;7.30;;;11.50;99.90;;;;;;5070164;28;20258;-85
2022/12/22 19:51:27;;;;;;;28.47;7.10;;;11.40;99.90;;;;;;5079246;28;20215;-84
2022/12/22 19:54:05;;;;;;;27.37;7.63;;;11.40;99.90;;;;;;5079651;28;20268;-85
2022/12/22 19:56:57;;;;;;;30.87;8.70;;;11.40;99.90;;;;;;5088770;28;20200;-84